createdAt,value
2023-03-04T00:01:48.838Z,101207.13
2023-03-04T00:04:15.622Z,101195.00
2023-03-04T00:06:42.666Z,101195.00
2023-03-04T00:09:11.852Z,101195.00
2023-03-04T00:11:38.421Z,101195.00
2023-03-04T00:14:05.085Z,101195.00
2023-03-04T00:16:31.807Z,101198.47
2023-03-04T00:18:58.513Z,101197.63
2023-03-04T00:21:27.336Z,101190.66
2023-03-04T00:23:53.961Z,101181.94
2023-03-04T00:26:20.655Z,101181.06
2023-03-04T00:28:47.534Z,101173.25
2023-03-04T00:31:21.412Z,101164.50
2023-03-04T00:33:48.044Z,101168.84
2023-03-04T00:36:14.616Z,101161.00
2023-03-04T00:38:47.270Z,101161.88
2023-03-04T00:41:16.208Z,101165.34
2023-03-04T00:43:42.947Z,101160.13
2023-03-04T00:46:09.611Z,101161.00
2023-03-04T00:48:36.623Z,101157.53
2023-03-04T00:51:03.343Z,101154.91
2023-03-04T00:53:29.980Z,101156.63
2023-03-04T00:55:56.672Z,101151.44
2023-03-04T00:58:23.253Z,101148.78
2023-03-04T01:00:52.839Z,101147.03
2023-03-04T01:03:19.399Z,101147.88
2023-03-04T01:05:46.085Z,101141.81
2023-03-04T01:08:12.697Z,101139.16
2023-03-04T01:10:39.426Z,101141.78
2023-03-04T01:13:06.286Z,101146.16
2023-03-04T01:15:33.560Z,101136.56
2023-03-04T01:18:00.625Z,101140.03
2023-03-04T01:20:27.330Z,101137.41
2023-03-04T01:23:01.207Z,101139.97
2023-03-04T01:25:30.902Z,101132.19
2023-03-04T01:27:58.708Z,101126.94
2023-03-04T01:30:25.319Z,101133.03
2023-03-04T01:32:51.864Z,101119.94
2023-03-04T01:35:18.467Z,101119.91
2023-03-04T01:37:45.090Z,101105.97
2023-03-04T01:40:13.039Z,101114.69
2023-03-04T01:42:39.839Z,101104.19
2023-03-04T01:45:07.036Z,101099.88
2023-03-04T01:47:35.064Z,101105.88
2023-03-04T01:50:03.158Z,101105.94
2023-03-04T01:52:32.991Z,101093.75
2023-03-04T01:55:00.159Z,101088.50
2023-03-04T01:57:26.814Z,101088.44
2023-03-04T02:00:32.440Z,101090.22
2023-03-04T02:03:01.258Z,101087.56
2023-03-04T02:05:28.198Z,101080.50
2023-03-04T02:07:59.585Z,101081.41
2023-03-04T02:10:28.864Z,101077.94
2023-03-04T02:12:55.713Z,101069.13
2023-03-04T02:15:23.075Z,101070.97
2023-03-04T02:17:50.105Z,101065.63
2023-03-04T02:20:33.210Z,101067.50
2023-03-04T02:23:07.483Z,101062.16
2023-03-04T02:25:38.629Z,101052.59
2023-03-04T02:28:05.427Z,101055.16
2023-03-04T02:30:34.361Z,101050.75
2023-03-04T02:33:01.230Z,101056.09
2023-03-04T02:35:28.495Z,101056.09
2023-03-04T02:37:55.671Z,101047.22
2023-03-04T02:40:31.168Z,101055.22
2023-03-04T02:43:00.270Z,101055.25
2023-03-04T02:45:35.906Z,101054.34
2023-03-04T02:48:02.662Z,101048.22
2023-03-04T02:50:31.716Z,101042.91
2023-03-04T02:52:59.569Z,101041.97
2023-03-04T02:55:26.210Z,101038.59
2023-03-04T02:58:00.369Z,101044.69
2023-03-04T03:00:35.204Z,101040.28
2023-03-04T03:03:04.485Z,101034.28
2023-03-04T03:05:32.084Z,101039.44
2023-03-04T03:08:06.382Z,101041.22
2023-03-04T03:10:33.454Z,101035.97
2023-03-04T03:13:00.295Z,101036.00
2023-03-04T03:15:27.395Z,101037.72
2023-03-04T03:17:55.209Z,101034.97
2023-03-04T03:20:21.842Z,101033.34
2023-03-04T03:22:48.413Z,101029.84
2023-03-04T03:25:18.236Z,101036.00
2023-03-04T03:27:45.690Z,101034.25
2023-03-04T03:30:16.614Z,101026.34
2023-03-04T03:32:45.702Z,101025.66
2023-03-04T03:35:12.793Z,101025.53
2023-03-04T03:37:40.367Z,101015.06
2023-03-04T03:40:07.315Z,101008.03
2023-03-04T03:42:34.341Z,101009.88
2023-03-04T03:45:00.923Z,101017.72
2023-03-04T03:47:27.531Z,101015.06
2023-03-04T03:49:56.721Z,101012.50
2023-03-04T03:52:28.612Z,101009.03
2023-03-04T03:54:55.324Z,101005.50
2023-03-04T03:57:21.840Z,101006.47
2023-03-04T03:59:48.430Z,100995.91
2023-03-04T04:02:15.132Z,101001.13
2023-03-04T04:04:44.147Z,100994.16
2023-03-04T04:07:13.676Z,100997.56
2023-03-04T04:09:42.573Z,100990.72
2023-03-04T04:12:09.280Z,100995.13
2023-03-04T04:14:35.898Z,100989.78
2023-03-04T04:17:02.492Z,100993.25
2023-03-04T04:19:34.169Z,100988.94
2023-03-04T04:22:00.941Z,100986.34
2023-03-04T04:24:27.534Z,100989.88
2023-03-04T04:26:54.235Z,100989.81
2023-03-04T04:29:21.074Z,100981.91
2023-03-04T04:31:50.894Z,100990.72
2023-03-04T04:34:17.541Z,100990.81
2023-03-04T04:36:44.331Z,100991.63
2023-03-04T04:39:11.086Z,100993.28
2023-03-04T04:41:39.558Z,100990.72
2023-03-04T04:44:06.287Z,100990.66
2023-03-04T04:46:41.471Z,100987.19
2023-03-04T04:49:11.371Z,100987.28
2023-03-04T04:51:38.723Z,100987.28
2023-03-04T04:54:05.405Z,100987.28
2023-03-04T04:56:32.366Z,100985.50
2023-03-04T04:59:03.458Z,100980.38
2023-03-04T05:01:30.724Z,100982.84
2023-03-04T05:03:57.379Z,100975.09
2023-03-04T05:06:27.531Z,100970.75
2023-03-04T05:08:54.198Z,100972.59
2023-03-04T05:11:23.547Z,100972.47
2023-03-04T05:13:50.373Z,100975.00
2023-03-04T05:16:17.295Z,100963.66
2023-03-04T05:18:43.958Z,100976.72
2023-03-04T05:21:11.003Z,100971.50
2023-03-04T05:23:41.012Z,100968.91
2023-03-04T05:26:08.628Z,100962.84
2023-03-04T05:28:35.374Z,100966.28
2023-03-04T05:31:02.376Z,100966.47
2023-03-04T05:33:28.943Z,100970.75
2023-03-04T05:35:56.455Z,100971.63
2023-03-04T05:38:23.207Z,100966.47
2023-03-04T05:40:49.998Z,100962.91
2023-03-04T05:43:16.574Z,100967.31
2023-03-04T05:45:43.172Z,100973.38
2023-03-04T05:48:09.751Z,100963.81
2023-03-04T05:50:36.433Z,100962.97
2023-03-04T05:53:03.124Z,100959.47
2023-03-04T05:55:30.126Z,100957.72
2023-03-04T05:57:59.749Z,100968.25
2023-03-04T06:00:51.828Z,100965.63
2023-03-04T06:03:19.869Z,100965.59
2023-03-04T06:05:46.553Z,100959.53
2023-03-04T06:08:13.467Z,100967.34
2023-03-04T06:10:40.845Z,100962.19
2023-03-04T06:13:07.669Z,100973.41
2023-03-04T06:15:34.328Z,100973.41
2023-03-04T06:18:00.938Z,100968.91
2023-03-04T06:20:27.510Z,100966.38
2023-03-04T06:22:54.125Z,100968.22
2023-03-04T06:25:20.742Z,100962.94
2023-03-04T06:27:49.177Z,100973.44
2023-03-04T06:30:16.967Z,100969.13
2023-03-04T06:32:44.452Z,100966.50
2023-03-04T06:35:11.979Z,100966.56
2023-03-04T06:37:38.757Z,100957.78
2023-03-04T06:40:07.854Z,100966.56
2023-03-04T06:42:35.307Z,100962.94
2023-03-04T06:45:02.074Z,100967.28
2023-03-04T06:47:28.737Z,100966.41
2023-03-04T06:49:55.341Z,100971.63
2023-03-04T06:52:21.930Z,100968.16
2023-03-04T06:54:48.542Z,100980.34
2023-03-04T06:57:15.133Z,100971.69
2023-03-04T06:59:41.712Z,100977.69
2023-03-04T07:02:11.254Z,100970.75
2023-03-04T07:04:37.974Z,100970.81
2023-03-04T07:07:04.633Z,100975.97
2023-03-04T07:09:31.238Z,100980.31
2023-03-04T07:11:57.796Z,100981.22
2023-03-04T07:14:24.443Z,100968.84
2023-03-04T07:16:51.536Z,100971.47
2023-03-04T07:19:18.053Z,100975.13
2023-03-04T07:21:44.633Z,100976.69
2023-03-04T07:24:11.170Z,100977.66
2023-03-04T07:26:38.341Z,100956.63
2023-03-04T07:29:05.343Z,100975.88
2023-03-04T07:31:33.319Z,100969.56
2023-03-04T07:34:08.197Z,100971.44
2023-03-04T07:36:36.068Z,100967.78
2023-03-04T07:39:03.687Z,100966.13
2023-03-04T07:41:30.978Z,100974.09
2023-03-04T07:43:58.113Z,100973.09
2023-03-04T07:46:24.914Z,100969.75
2023-03-04T07:48:51.502Z,100961.84
2023-03-04T07:51:20.071Z,100960.88
2023-03-04T07:53:47.954Z,100975.84
2023-03-04T07:56:33.996Z,100955.81
2023-03-04T07:59:00.914Z,100971.47
2023-03-04T08:01:29.114Z,100960.81
2023-03-04T08:03:55.800Z,100962.66
2023-03-04T08:06:22.971Z,100960.78
2023-03-04T08:08:49.958Z,100962.56
2023-03-04T08:11:18.293Z,100959.06
2023-03-04T08:13:45.020Z,100955.59
2023-03-04T08:16:18.489Z,100957.34
2023-03-04T08:18:45.995Z,100964.19
2023-03-04T08:21:12.922Z,100959.97
2023-03-04T08:23:39.946Z,100959.91
2023-03-04T08:26:08.318Z,100959.97
2023-03-04T08:28:35.242Z,100959.13
2023-03-04T08:31:02.013Z,100957.25
2023-03-04T08:33:28.581Z,100956.22
2023-03-04T08:35:55.132Z,100955.31
2023-03-04T08:38:21.736Z,100961.34
2023-03-04T08:40:52.157Z,100962.44
2023-03-04T08:43:18.734Z,100957.94
2023-03-04T08:45:45.400Z,100954.47
2023-03-04T08:48:12.102Z,100966.50
2023-03-04T08:50:38.604Z,100964.06
2023-03-04T08:53:05.210Z,100971.84
2023-03-04T08:55:31.690Z,100964.56
2023-03-04T08:57:58.230Z,100957.53
2023-03-04T09:00:24.811Z,100961.75
2023-03-04T09:02:51.463Z,100957.41
2023-03-04T09:05:18.096Z,100963.66
2023-03-04T09:07:44.660Z,100958.16
2023-03-04T09:10:11.533Z,100958.22
2023-03-04T09:12:38.080Z,100952.38
2023-03-04T09:15:11.574Z,100954.97
2023-03-04T09:17:38.966Z,100963.97
2023-03-04T09:20:06.247Z,100957.75
2023-03-04T09:22:32.805Z,100970.91
2023-03-04T09:24:59.293Z,100964.72
2023-03-04T09:27:25.853Z,100973.53
2023-03-04T09:29:52.563Z,100971.75
2023-03-04T09:32:19.357Z,100969.00
2023-03-04T09:34:46.006Z,100976.66
2023-03-04T09:37:12.604Z,100977.19
2023-03-04T09:39:39.080Z,100983.72
2023-03-04T09:42:06.954Z,100977.25
2023-03-04T09:44:36.898Z,100961.06
2023-03-04T09:47:05.824Z,100975.88
2023-03-04T09:49:32.432Z,100979.31
2023-03-04T09:51:58.993Z,100977.16
2023-03-04T09:54:31.467Z,100973.56
2023-03-04T09:57:00.948Z,100976.84
2023-03-04T09:59:32.315Z,100975.22
2023-03-04T10:02:00.860Z,100982.34
2023-03-04T10:04:34.443Z,100977.41
2023-03-04T10:07:02.604Z,100982.59
2023-03-04T10:09:38.162Z,100986.00
2023-03-04T10:12:06.923Z,100978.38
2023-03-04T10:14:53.732Z,100980.44
2023-03-04T10:17:29.141Z,100985.25
2023-03-04T10:20:04.832Z,100984.16
2023-03-04T10:22:31.399Z,100984.50
2023-03-04T10:24:58.909Z,100993.16
2023-03-04T10:27:26.516Z,100983.16
2023-03-04T10:29:53.091Z,100977.47
2023-03-04T10:32:20.804Z,100982.72
2023-03-04T10:34:47.348Z,100987.66
2023-03-04T10:37:14.301Z,100982.06
2023-03-04T10:39:42.493Z,100987.41
2023-03-04T10:42:15.024Z,100990.34
2023-03-04T10:44:52.002Z,100982.09
2023-03-04T10:47:18.631Z,100978.47
2023-03-04T10:49:55.298Z,100978.41
2023-03-04T10:52:26.931Z,100978.28
2023-03-04T10:54:54.846Z,100973.59
2023-03-04T10:57:23.542Z,100970.84
2023-03-04T10:59:55.983Z,100979.38
2023-03-04T11:02:22.875Z,100976.59
2023-03-04T11:04:50.686Z,100964.56
2023-03-04T11:07:17.290Z,100953.50
2023-03-04T11:09:44.858Z,100949.75
2023-03-04T11:12:13.468Z,100952.75
2023-03-04T11:14:44.362Z,100952.75
2023-03-04T11:17:40.630Z,100963.69
2023-03-04T11:20:08.418Z,100965.84
2023-03-04T11:22:34.994Z,100962.38
2023-03-04T11:25:05.771Z,100960.47
2023-03-04T11:27:51.807Z,100962.47
2023-03-04T11:30:27.491Z,100962.44
2023-03-04T11:32:56.711Z,100959.03
2023-03-04T11:35:23.185Z,100961.03
2023-03-04T11:37:59.012Z,100952.44
2023-03-04T11:40:28.583Z,100938.13
2023-03-04T11:43:13.312Z,100944.94
2023-03-04T11:45:42.874Z,100944.28
2023-03-04T11:48:21.461Z,100957.19
2023-03-04T11:50:57.855Z,100951.50
2023-03-04T11:53:30.504Z,100940.09
2023-03-04T11:55:57.005Z,100943.16
2023-03-04T11:58:23.519Z,100941.09
2023-03-04T12:00:57.007Z,100940.47
2023-03-04T12:03:42.271Z,100931.75
2023-03-04T12:06:27.450Z,100943.03
2023-03-04T12:09:09.140Z,100928.81
2023-03-04T12:11:40.331Z,100927.81
2023-03-04T12:14:18.670Z,100928.63
2023-03-04T12:16:56.095Z,100916.78
2023-03-04T12:19:36.126Z,100912.00
2023-03-04T12:22:14.789Z,100926.72
2023-03-04T12:24:41.275Z,100926.03
2023-03-04T12:27:07.724Z,100929.00
2023-03-04T12:29:46.178Z,100915.88
2023-03-04T12:32:15.998Z,100915.81
2023-03-04T12:34:42.742Z,100916.47
2023-03-04T12:37:33.953Z,100911.56
2023-03-04T12:40:20.593Z,100914.41
2023-03-04T12:43:00.703Z,100906.28
2023-03-04T12:45:42.320Z,100909.56
2023-03-04T12:48:14.652Z,100905.69
2023-03-04T12:50:56.341Z,100907.69
2023-03-04T12:53:40.980Z,100913.81
2023-03-04T12:56:19.529Z,100911.41
2023-03-04T12:58:46.226Z,100902.78
2023-03-04T13:01:32.962Z,100901.19
2023-03-04T13:04:02.553Z,100883.28
2023-03-04T13:06:32.235Z,100894.28
2023-03-04T13:09:04.837Z,100903.03
2023-03-04T13:11:41.604Z,100909.47
2023-03-04T13:14:22.881Z,100910.16
2023-03-04T13:16:50.836Z,100903.63
2023-03-04T13:19:35.887Z,100907.81
2023-03-04T13:22:02.575Z,100911.75
2023-03-04T13:24:45.180Z,100905.53
2023-03-04T13:27:31.944Z,100906.81
2023-03-04T13:29:58.493Z,100904.78
2023-03-04T13:32:38.659Z,100894.69
2023-03-04T13:35:23.881Z,100895.22
2023-03-04T13:37:57.381Z,100886.31
2023-03-04T13:40:23.950Z,100882.72
2023-03-04T13:42:50.704Z,100890.44
2023-03-04T13:45:31.805Z,100896.09
2023-03-04T13:47:59.032Z,100883.44
2023-03-04T13:50:38.022Z,100885.94
2023-03-04T13:53:31.152Z,100896.59
2023-03-04T13:56:10.422Z,100894.38
2023-03-04T13:58:37.816Z,100888.72
2023-03-04T14:01:04.589Z,100899.88
2023-03-04T14:03:31.827Z,100889.66
2023-03-04T14:06:17.853Z,100893.81
2023-03-04T14:08:45.234Z,100895.31
2023-03-04T14:11:34.316Z,100894.69
2023-03-04T14:14:04.402Z,100895.34
2023-03-04T14:16:33.789Z,100898.03
2023-03-04T14:19:02.224Z,100899.69
2023-03-04T14:21:29.348Z,100900.91
2023-03-04T14:24:03.711Z,100896.00
2023-03-04T14:26:31.209Z,100902.63
2023-03-04T14:28:59.649Z,100905.28
2023-03-04T14:31:30.108Z,100901.84
2023-03-04T14:34:01.990Z,100898.44
2023-03-04T14:36:30.662Z,100896.78
2023-03-04T14:38:59.019Z,100891.09
2023-03-04T14:41:45.373Z,100899.41
2023-03-04T14:44:11.897Z,100898.88
2023-03-04T14:46:41.605Z,100894.72
2023-03-04T14:49:12.472Z,100897.34
2023-03-04T14:51:56.308Z,100904.78
2023-03-04T14:54:27.739Z,100899.69
2023-03-04T14:56:54.344Z,100900.56
2023-03-04T14:59:34.836Z,100901.53
2023-03-04T15:02:19.122Z,100894.78
2023-03-04T15:04:49.431Z,100890.09
2023-03-04T15:07:17.330Z,100894.34
2023-03-04T15:09:49.883Z,100890.78
2023-03-04T15:12:22.509Z,100886.06
2023-03-04T15:14:52.583Z,100881.28
2023-03-04T15:17:24.973Z,100877.94
2023-03-04T15:20:06.936Z,100867.91
2023-03-04T15:22:34.046Z,100863.38
2023-03-04T15:25:00.757Z,100873.59
2023-03-04T15:27:28.328Z,100861.47
2023-03-04T15:29:58.962Z,100869.47
2023-03-04T15:32:26.147Z,100863.00
2023-03-04T15:34:52.696Z,100859.28
2023-03-04T15:37:24.768Z,100863.28
2023-03-04T15:39:51.471Z,100865.00
2023-03-04T15:42:18.552Z,100860.16
2023-03-04T15:44:45.454Z,100859.81
2023-03-04T15:47:13.891Z,100862.41
2023-03-04T15:49:41.219Z,100865.41
2023-03-04T15:52:13.190Z,100857.25
2023-03-04T15:54:39.789Z,100864.13
2023-03-04T15:57:08.822Z,100864.28
2023-03-04T15:59:35.352Z,100860.94
2023-03-04T16:02:01.873Z,100864.75
2023-03-04T16:04:28.508Z,100864.28
2023-03-04T16:06:58.589Z,100877.44
2023-03-04T16:09:25.842Z,100865.88
2023-03-04T16:11:56.383Z,100866.75
2023-03-04T16:14:22.934Z,100868.47
2023-03-04T16:16:50.480Z,100870.06
2023-03-04T16:19:17.036Z,100877.88
2023-03-04T16:21:43.656Z,100888.16
2023-03-04T16:24:15.629Z,100876.59
2023-03-04T16:26:42.228Z,100873.88
2023-03-04T16:29:09.941Z,100874.53
2023-03-04T16:31:36.609Z,100874.78
2023-03-04T16:34:03.195Z,100867.50
2023-03-04T16:36:30.007Z,100861.50
2023-03-04T16:38:57.374Z,100871.03
2023-03-04T16:41:26.581Z,100863.66
2023-03-04T16:43:55.209Z,100877.41
2023-03-04T16:46:22.537Z,100876.47
2023-03-04T16:48:49.064Z,100866.78
2023-03-04T16:51:19.952Z,100874.22
2023-03-04T16:53:52.021Z,100878.44
2023-03-04T16:56:19.264Z,100882.97
2023-03-04T16:58:45.804Z,100881.72
2023-03-04T17:01:19.556Z,100889.66
2023-03-04T17:03:46.193Z,100886.31
2023-03-04T17:06:12.867Z,100890.72
2023-03-04T17:08:39.491Z,100887.38
2023-03-04T17:11:06.305Z,100887.44
2023-03-04T17:13:32.863Z,100885.50
2023-03-04T17:16:03.270Z,100875.97
2023-03-04T17:18:29.982Z,100881.94
2023-03-04T17:21:04.336Z,100892.25
2023-03-04T17:23:30.869Z,100888.81
2023-03-04T17:25:58.214Z,100889.00
2023-03-04T17:28:25.163Z,100887.09
2023-03-04T17:30:51.849Z,100879.41
2023-03-04T17:33:18.413Z,100885.28
2023-03-04T17:35:45.272Z,100884.78
2023-03-04T17:38:12.546Z,100883.91
2023-03-04T17:40:39.236Z,100889.91
2023-03-04T17:43:11.304Z,100892.88
2023-03-04T17:45:38.624Z,100896.34
2023-03-04T17:48:05.457Z,100888.88
2023-03-04T17:50:32.239Z,100890.88
2023-03-04T17:52:58.843Z,100892.31
2023-03-04T17:55:25.496Z,100882.34
2023-03-04T17:57:53.119Z,100887.63
2023-03-04T18:00:20.581Z,100897.59
2023-03-04T18:02:47.199Z,100887.00
2023-03-04T18:05:13.849Z,100890.63
2023-03-04T18:07:40.431Z,100886.19
2023-03-04T18:10:07.317Z,100899.38
2023-03-04T18:12:33.866Z,100888.75
2023-03-04T18:15:00.419Z,100893.69
2023-03-04T18:17:26.928Z,100886.91
2023-03-04T18:19:53.497Z,100899.28
2023-03-04T18:22:20.007Z,100887.28
2023-03-04T18:24:46.637Z,100885.59
2023-03-04T18:27:13.184Z,100878.56
2023-03-04T18:29:39.873Z,100876.66
2023-03-04T18:32:06.509Z,100873.44
2023-03-04T18:34:33.150Z,100874.31
2023-03-04T18:36:59.652Z,100879.72
2023-03-04T18:39:26.184Z,100883.84
2023-03-04T18:41:52.760Z,100879.53
2023-03-04T18:44:19.298Z,100870.19
2023-03-04T18:46:47.769Z,100873.47
2023-03-04T18:49:15.024Z,100884.75
2023-03-04T18:51:41.556Z,100891.81
2023-03-04T18:54:11.388Z,100882.25
2023-03-04T18:56:47.384Z,100898.84
2023-03-04T18:59:21.782Z,100887.78
2023-03-04T19:01:50.033Z,100886.53
2023-03-04T19:04:18.631Z,100885.75
2023-03-04T19:06:45.250Z,100885.97
2023-03-04T19:09:12.010Z,100878.28
2023-03-04T19:11:38.668Z,100889.69
2023-03-04T19:14:06.403Z,100886.91
2023-03-04T19:16:36.502Z,100897.66
2023-03-04T19:19:03.108Z,100893.09
2023-03-04T19:21:30.830Z,100887.97
2023-03-04T19:24:00.555Z,100898.50
2023-03-04T19:26:27.314Z,100895.66
2023-03-04T19:28:53.900Z,100892.16
2023-03-04T19:31:20.643Z,100894.94
2023-03-04T19:33:47.698Z,100894.13
2023-03-04T19:36:14.421Z,100893.38
2023-03-04T19:38:41.004Z,100903.69
2023-03-04T19:41:11.890Z,100897.56
2023-03-04T19:43:39.527Z,100898.41
2023-03-04T19:46:07.617Z,100893.00
2023-03-04T19:48:35.037Z,100890.25
2023-03-04T19:51:04.503Z,100896.84
2023-03-04T19:53:34.297Z,100893.22
2023-03-04T19:56:01.421Z,100886.34
2023-03-04T19:58:28.101Z,100901.97
2023-03-04T20:00:54.990Z,100903.75
2023-03-04T20:03:22.182Z,100909.09
2023-03-04T20:05:48.978Z,100906.50
2023-03-04T20:08:15.683Z,100905.69
2023-03-04T20:10:42.349Z,100906.50
2023-03-04T20:13:09.482Z,100903.84
2023-03-04T20:15:36.217Z,100902.13
2023-03-04T20:18:02.822Z,100908.34
2023-03-04T20:20:29.760Z,100907.34
2023-03-04T20:22:56.625Z,100908.31
2023-03-04T20:25:23.896Z,100911.81
2023-03-04T20:27:51.451Z,100909.28
2023-03-04T20:30:18.260Z,100903.75
2023-03-04T20:32:45.557Z,100905.63
2023-03-04T20:35:15.099Z,100903.97
2023-03-04T20:37:42.401Z,100914.44
2023-03-04T20:40:10.123Z,100907.44
2023-03-04T20:42:36.729Z,100920.59
2023-03-04T20:45:03.629Z,100916.22
2023-03-04T20:47:33.614Z,100919.69
2023-03-04T20:50:00.220Z,100917.97
2023-03-04T20:52:26.885Z,100914.63
2023-03-04T20:54:53.596Z,100924.06
2023-03-04T20:57:20.457Z,100908.47
2023-03-04T20:59:47.116Z,100916.25
2023-03-04T21:02:17.384Z,100918.88
2023-03-04T21:04:44.196Z,100906.66
2023-03-04T21:07:11.736Z,100918.81
2023-03-04T21:09:38.421Z,100911.00
2023-03-04T21:12:05.116Z,100909.34
2023-03-04T21:14:32.346Z,100903.28
2023-03-04T21:17:00.283Z,100900.59
2023-03-04T21:19:28.232Z,100896.31
2023-03-04T21:21:56.027Z,100911.06
2023-03-04T21:24:27.191Z,100904.00
2023-03-04T21:26:54.186Z,100904.75
2023-03-04T21:29:24.931Z,100891.00
2023-03-04T21:31:52.946Z,100901.41
2023-03-04T21:34:22.147Z,100897.19
2023-03-04T21:36:48.899Z,100897.19
2023-03-04T21:39:16.756Z,100897.16
2023-03-04T21:41:43.610Z,100900.66
2023-03-04T21:44:18.184Z,100893.63
2023-03-04T21:46:57.715Z,100899.91
2023-03-04T21:49:24.466Z,100897.19
2023-03-04T21:51:51.044Z,100891.97
2023-03-04T21:54:17.936Z,100895.34
2023-03-04T21:56:44.626Z,100893.66
2023-03-04T21:59:12.575Z,100896.22
2023-03-04T22:01:39.758Z,100893.47
2023-03-04T22:04:06.683Z,100889.94
2023-03-04T22:06:34.445Z,100897.09
2023-03-04T22:09:02.194Z,100895.19
2023-03-04T22:11:30.123Z,100883.84
2023-03-04T22:13:57.881Z,100892.66
2023-03-04T22:16:25.094Z,100888.19
2023-03-04T22:18:51.732Z,100887.47
2023-03-04T22:21:19.156Z,100883.13
2023-03-04T22:23:45.770Z,100874.41
2023-03-04T22:26:20.407Z,100877.13
2023-03-04T22:28:47.297Z,100871.84
2023-03-04T22:31:25.492Z,100871.81
2023-03-04T22:33:54.812Z,100875.28
2023-03-04T22:36:22.640Z,100862.22
2023-03-04T22:38:52.495Z,100869.19
2023-03-04T22:41:19.774Z,100860.59
2023-03-04T22:43:46.828Z,100871.06
2023-03-04T22:46:24.465Z,100867.47
2023-03-04T22:48:51.847Z,100863.94
2023-03-04T22:51:19.074Z,100867.44
2023-03-04T22:53:45.818Z,100863.13
2023-03-04T22:56:13.901Z,100863.13
2023-03-04T22:58:41.562Z,100865.75
2023-03-04T23:01:08.758Z,100864.88
2023-03-04T23:03:36.963Z,100867.53
2023-03-04T23:06:07.770Z,100858.00
2023-03-04T23:08:35.166Z,100862.34
2023-03-04T23:11:02.352Z,100860.53
2023-03-04T23:13:29.354Z,100839.81
2023-03-04T23:15:56.010Z,100841.59
2023-03-04T23:18:25.049Z,100846.84
2023-03-04T23:20:51.702Z,100843.28
2023-03-04T23:23:21.438Z,100841.44
2023-03-04T23:25:52.361Z,100847.63
2023-03-04T23:28:19.122Z,100857.22
2023-03-04T23:30:45.872Z,100850.25
2023-03-04T23:33:15.622Z,100847.69
2023-03-04T23:35:44.524Z,100841.53
2023-03-04T23:38:14.105Z,100841.63
2023-03-04T23:40:40.768Z,100843.22
2023-03-04T23:43:07.290Z,100840.69
2023-03-04T23:45:34.480Z,100839.88
2023-03-04T23:48:03.604Z,100839.88
2023-03-04T23:50:34.474Z,100832.81
2023-03-04T23:53:03.427Z,100829.47
2023-03-04T23:55:33.807Z,100831.25
2023-03-04T23:58:00.474Z,100834.69
